Time,TemperatureF,DewpointF,PressureIn,WindDirection,WindDirectionDegrees,WindSpeedMPH,WindSpeedGustMPH,Humidity,HourlyPrecipIn,Conditions,Clouds,dailyrainin,SoftwareType,DateUTC
2013-01-30 00:00:00,-6.3,-11.4,29.95,North,0,0.0,0.0,78,0.00,CLR,,0.00,WeatherDisplay:10.37,2013-01-30 09:00:00,
2013-01-30 00:05:00,-6.3,-11.4,29.95,North,0,0.0,0.0,78,0.00,CLR,,0.00,WeatherDisplay:10.37,2013-01-30 09:05:00,
2013-01-30 00:10:00,-6.3,-11.4,29.95,North,0,0.0,0.0,78,0.00,CLR,,0.00,WeatherDisplay:10.37,2013-01-30 09:10:00,
2013-01-30 00:15:00,-6.3,-11.6,29.95,North,0,0.0,0.0,77,0.00,CLR,,0.00,WeatherDisplay:10.37,2013-01-30 09:15:00,
2013-01-30 00:20:00,-6.3,-10.6,29.95,North,0,0.0,0.0,81,0.00,CLR,,0.00,WeatherDisplay:10.37,2013-01-30 09:20:00,
2013-01-30 00:25:00,-6.3,-11.4,29.95,North,0,0.0,0.0,78,0.00,CLR,,0.00,WeatherDisplay:10.37,2013-01-30 09:25:00,
2013-01-30 00:30:00,-6.2,-11.1,29.95,North,0,0.0,0.0,79,0.00,CLR,,0.00,WeatherDisplay:10.37,2013-01-30 09:30:00,
2013-01-30 00:40:00,-6.3,-11.2,29.96,North,0,0.0,0.0,79,0.00,CLR,,0.00,WeatherDisplay:10.37,2013-01-30 09:40:00,
2013-01-30 00:45:00,-6.3,-11.2,29.96,North,0,0.0,0.0,79,0.00,CLR,,0.00,WeatherDisplay:10.37,2013-01-30 09:45:00,
2013-01-30 00:50:00,-6.3,-10.9,29.96,North,0,0.0,0.0,80,0.00,CLR,,0.00,WeatherDisplay:10.37,2013-01-30 09:50:00,
2013-01-30 00:55:00,-6.4,-12.6,29.96,North,0,0.0,0.0,74,0.00,CLR,,0.00,WeatherDisplay:10.37,2013-01-30 09:55:00,
2013-01-30 01:00:00,-6.5,-11.1,29.96,North,0,0.0,0.0,80,0.00,CLR,,0.00,WeatherDisplay:10.37,2013-01-30 10:00:00,
2013-01-30 01:15:00,-6.5,-11.8,29.96,North,0,0.0,0.0,77,0.00,CLR,,0.00,WeatherDisplay:10.37,2013-01-30 10:15:00,
2013-01-30 01:20:00,-6.5,-11.1,29.96,North,0,0.0,0.0,80,0.00,CLR,,0.00,WeatherDisplay:10.37,2013-01-30 10:20:00,
2013-01-30 01:30:00,-6.7,-11.3,29.96,North,0,0.0,0.0,80,0.00,CLR,,0.00,WeatherDisplay:10.37,2013-01-30 10:30:00,
2013-01-30 01:40:00,-6.9,-11.2,29.95,North,0,0.0,0.0,81,0.00,CLR,,0.00,WeatherDisplay:10.37,2013-01-30 10:40:00,
2013-01-30 01:45:00,-6.9,-11.2,29.95,North,0,0.0,0.0,81,0.00,CLR,,0.00,WeatherDisplay:10.37,2013-01-30 10:45:00,
2013-01-30 01:54:00,-6.9,-11.4,29.96,North,0,0.0,0.0,80,0.00,CLR,,0.00,WeatherDisplay:10.37,2013-01-30 10:54:00,
2013-01-30 02:00:00,-6.9,-11.4,29.96,North,0,0.0,0.0,80,0.00,CLR,,0.00,WeatherDisplay:10.37,2013-01-30 11:00:00,
2013-01-30 02:09:00,-7.1,-11.4,29.96,North,0,0.0,0.0,81,0.00,CLR,,0.00,WeatherDisplay:10.37,2013-01-30 11:09:00,
2013-01-30 02:15:00,-7.1,-11.4,29.97,North,0,0.0,0.0,81,0.00,CLR,,0.00,WeatherDisplay:10.37,2013-01-30 11:15:00,
2013-01-30 02:24:00,-6.9,-11.2,29.98,North,0,0.0,0.0,81,0.00,CLR,,0.00,WeatherDisplay:10.37,2013-01-30 11:24:00,
2013-01-30 02:30:00,-6.5,-10.8,29.97,North,0,0.0,0.0,81,0.00,CLR,,0.00,WeatherDisplay:10.37,2013-01-30 11:30:00,
2013-01-30 02:39:00,-6.4,-10.7,29.96,North,0,0.0,0.0,81,0.00,CLR,,0.00,WeatherDisplay:10.37,2013-01-30 11:39:00,
2013-01-30 02:45:00,-6.3,-10.6,29.96,North,0,0.0,0.0,81,0.00,CLR,,0.00,WeatherDisplay:10.37,2013-01-30 11:45:00,
2013-01-30 02:54:00,-6.5,-10.8,29.97,North,0,0.0,0.0,81,0.00,CLR,,0.00,WeatherDisplay:10.37,2013-01-30 11:54:00,
2013-01-30 03:00:00,-6.7,-12.5,29.96,North,0,0.0,0.0,75,0.00,CLR,,0.00,WeatherDisplay:10.37,2013-01-30 12:00:00,
2013-01-30 03:09:00,-7.2,-11.5,29.97,North,0,0.0,0.0,81,0.00,CLR,,0.00,WeatherDisplay:10.37,2013-01-30 12:09:00,
2013-01-30 03:15:00,-7.5,-12.1,29.98,North,0,0.0,0.0,80,0.00,CLR,,0.00,WeatherDisplay:10.37,2013-01-30 12:15:00,
2013-01-30 03:24:00,-8.0,-12.5,29.98,North,0,0.0,0.0,80,0.00,CLR,,0.00,WeatherDisplay:10.37,2013-01-30 12:24:00,
2013-01-30 03:30:00,-8.1,-12.7,29.99,North,0,0.0,0.0,80,0.00,CLR,,0.00,WeatherDisplay:10.37,2013-01-30 12:30:00,
2013-01-30 03:39:00,-8.0,-12.2,29.98,North,0,0.0,0.0,81,0.00,CLR,,0.00,WeatherDisplay:10.37,2013-01-30 12:39:00,
2013-01-30 03:45:00,-7.4,-11.0,29.98,North,0,0.0,0.0,84,0.00,CLR,,0.00,WeatherDisplay:10.37,2013-01-30 12:45:00,
2013-01-30 03:50:00,-7.0,-12.0,29.98,North,0,0.0,0.0,78,0.00,CLR,,0.00,WeatherDisplay:10.37,2013-01-30 12:50:00,
2013-01-30 03:54:00,-6.7,-11.0,29.96,North,0,0.0,0.0,81,0.00,CLR,,0.00,WeatherDisplay:10.37,2013-01-30 12:54:00,
2013-01-30 04:00:00,-6.4,-9.7,29.97,North,0,0.0,0.0,85,0.00,CLR,,0.00,WeatherDisplay:10.37,2013-01-30 13:00:00,
2013-01-30 04:09:00,-5.6,-10.2,29.96,North,0,0.0,0.0,80,0.00,CLR,,0.00,WeatherDisplay:10.37,2013-01-30 13:09:00,
2013-01-30 04:15:00,-5.4,-9.8,29.98,North,0,0.0,0.0,81,0.00,CLR,,0.00,WeatherDisplay:10.37,2013-01-30 13:15:00,
2013-01-30 04:24:00,-5.1,-9.4,29.97,North,0,0.0,0.0,81,0.00,CLR,,0.00,WeatherDisplay:10.37,2013-01-30 13:24:00,
2013-01-30 04:30:00,-5.3,-9.7,29.98,North,0,0.0,0.0,81,0.00,CLR,,0.00,WeatherDisplay:10.37,2013-01-30 13:30:00,
2013-01-30 04:40:00,-5.6,-9.9,29.97,North,0,0.0,0.0,81,0.00,CLR,,0.00,WeatherDisplay:10.37,2013-01-30 13:40:00,
2013-01-30 04:45:00,-5.6,-9.9,29.97,North,0,0.0,0.0,81,0.00,CLR,,0.00,WeatherDisplay:10.37,2013-01-30 13:45:00,
2013-01-30 04:50:00,-5.6,-9.9,29.98,North,0,0.0,0.0,81,0.00,CLR,,0.00,WeatherDisplay:10.37,2013-01-30 13:50:00,
2013-01-30 05:00:00,-5.4,-10.0,29.96,North,0,0.0,0.0,80,0.00,CLR,,0.00,WeatherDisplay:10.37,2013-01-30 14:00:00,
2013-01-30 05:09:00,-4.9,-9.7,29.96,North,0,0.0,0.0,79,0.00,CLR,,0.00,WeatherDisplay:10.37,2013-01-30 14:09:00,
2013-01-30 05:15:00,-4.7,-7.4,29.96,North,0,0.0,0.0,88,0.00,CLR,,0.00,WeatherDisplay:10.37,2013-01-30 14:15:00,
2013-01-30 05:24:00,-4.5,-7.4,29.95,North,0,0.0,0.0,87,0.00,CLR,,0.00,WeatherDisplay:10.37,2013-01-30 14:24:00,
2013-01-30 05:30:00,-4.4,-8.0,29.95,North,0,0.0,0.0,84,0.00,CLR,,0.00,WeatherDisplay:10.37,2013-01-30 14:30:00,
2013-01-30 05:35:00,-4.2,-8.3,29.95,North,0,0.0,0.0,82,0.00,CLR,,0.00,WeatherDisplay:10.37,2013-01-30 14:35:00,
2013-01-30 05:45:00,-4.2,-8.8,29.95,North,0,0.0,0.0,80,0.00,CLR,,0.00,WeatherDisplay:10.37,2013-01-30 14:45:00,
2013-01-30 05:50:00,-4.2,-8.3,29.95,North,0,0.0,0.0,82,0.00,CLR,,0.00,WeatherDisplay:10.37,2013-01-30 14:50:00,
2013-01-30 05:54:00,-4.4,-9.0,29.95,North,0,0.0,0.0,80,0.00,CLR,,0.00,WeatherDisplay:10.37,2013-01-30 14:54:00,
2013-01-30 06:00:00,-4.5,-10.2,29.95,North,0,0.0,0.0,76,0.00,CLR,,0.00,WeatherDisplay:10.37,2013-01-30 15:00:00,
2013-01-30 06:05:00,-4.6,-8.7,29.95,North,0,0.0,0.0,82,0.00,CLR,,0.00,WeatherDisplay:10.37,2013-01-30 15:05:00,
2013-01-30 06:10:00,-4.7,-9.1,29.95,North,0,0.0,0.0,81,0.00,CLR,,0.00,WeatherDisplay:10.37,2013-01-30 15:10:00,
2013-01-30 06:15:00,-4.7,-8.8,29.96,North,0,0.0,0.0,82,0.00,CLR,,0.00,WeatherDisplay:10.37,2013-01-30 15:15:00,
2013-01-30 06:25:00,-4.5,-9.4,29.95,North,0,0.0,0.0,79,0.00,CLR,,0.00,WeatherDisplay:10.37,2013-01-30 15:25:00,
2013-01-30 06:34:00,-4.5,-8.4,29.95,North,0,0.0,0.0,83,0.00,CLR,,0.00,WeatherDisplay:10.37,2013-01-30 15:34:00,
2013-01-30 06:40:00,-4.2,-8.3,29.95,North,0,0.0,0.0,82,0.00,CLR,,0.00,WeatherDisplay:10.37,2013-01-30 15:40:00,
2013-01-30 06:45:00,-3.9,-8.2,29.94,North,0,0.0,0.0,81,0.00,CLR,,0.00,WeatherDisplay:10.37,2013-01-30 15:45:00,
2013-01-30 06:55:00,-3.5,-7.8,29.94,North,0,0.0,0.0,81,0.00,CLR,,0.00,WeatherDisplay:10.37,2013-01-30 15:55:00,
2013-01-30 07:00:00,-3.3,-9.0,29.93,North,0,0.0,0.0,76,0.00,CLR,,0.00,WeatherDisplay:10.37,2013-01-30 16:00:00,
2013-01-30 07:05:00,-3.2,-7.4,29.93,North,0,0.0,0.0,82,0.00,CLR,,0.00,WeatherDisplay:10.37,2013-01-30 16:05:00,
2013-01-30 07:09:00,-2.9,-7.1,29.93,North,0,0.0,0.0,82,0.00,CLR,,0.00,WeatherDisplay:10.37,2013-01-30 16:09:00,
2013-01-30 07:15:00,-2.9,-6.5,29.93,North,0,0.0,0.0,84,0.00,CLR,,0.00,WeatherDisplay:10.37,2013-01-30 16:15:00,
2013-01-30 07:24:00,-3.0,-7.2,29.93,North,0,0.0,0.0,82,0.00,CLR,,0.00,WeatherDisplay:10.37,2013-01-30 16:24:00,
2013-01-30 07:30:00,-3.1,-7.0,29.93,North,0,0.0,0.0,83,0.00,CLR,,0.00,WeatherDisplay:10.37,2013-01-30 16:30:00,
2013-01-30 07:34:00,-2.9,-7.1,29.93,North,0,0.0,0.0,82,0.00,CLR,,0.00,WeatherDisplay:10.37,2013-01-30 16:34:00,
2013-01-30 07:39:00,-3.0,-7.2,29.93,North,0,0.0,0.0,82,0.00,CLR,,0.00,WeatherDisplay:10.37,2013-01-30 16:39:00,
2013-01-30 07:45:00,-3.1,-7.2,29.93,North,0,0.0,0.0,82,0.00,CLR,,0.00,WeatherDisplay:10.37,2013-01-30 16:45:00,
2013-01-30 07:54:00,-2.7,-6.9,29.93,North,0,0.0,0.0,82,0.00,CLR,,0.00,WeatherDisplay:10.37,2013-01-30 16:54:00,
2013-01-30 08:00:00,-2.6,-7.0,29.92,North,0,0.0,0.0,81,0.00,CLR,,0.00,WeatherDisplay:10.37,2013-01-30 17:00:00,
2013-01-30 08:10:00,-2.4,-7.3,29.92,North,0,0.0,0.0,79,0.00,CLR,,0.00,WeatherDisplay:10.37,2013-01-30 17:10:00,
2013-01-30 08:19:00,-2.4,-6.8,29.92,North,0,0.0,0.0,81,0.00,CLR,,0.00,WeatherDisplay:10.37,2013-01-30 17:19:00,
2013-01-30 08:24:00,-2.2,-6.9,29.92,North,0,0.0,0.0,80,0.00,CLR,,0.00,WeatherDisplay:10.37,2013-01-30 17:24:00,
2013-01-30 08:30:00,-2.2,-6.8,29.92,North,0,0.0,0.0,80,0.00,CLR,,0.00,WeatherDisplay:10.37,2013-01-30 17:30:00,
2013-01-30 08:39:00,-2.0,-6.4,29.92,North,0,0.0,0.0,81,0.00,CLR,,0.00,WeatherDisplay:10.37,2013-01-30 17:39:00,
2013-01-30 08:45:00,-1.9,-6.8,29.92,North,0,0.0,0.0,79,0.00,CLR,,0.00,WeatherDisplay:10.37,2013-01-30 17:45:00,
2013-01-30 08:54:00,-1.7,-5.8,29.91,North,0,0.0,0.0,82,0.00,CLR,,0.00,WeatherDisplay:10.37,2013-01-30 17:54:00,
2013-01-30 09:00:00,-1.5,-6.4,29.91,North,0,0.0,0.0,79,0.00,CLR,,0.00,WeatherDisplay:10.37,2013-01-30 18:00:00,
2013-01-30 09:09:00,-1.3,-6.2,29.91,North,0,0.0,0.0,79,0.00,CLR,,0.00,WeatherDisplay:10.37,2013-01-30 18:09:00,
2013-01-30 09:15:00,-1.2,-6.4,29.91,North,0,0.0,0.0,78,0.00,CLR,,0.00,WeatherDisplay:10.37,2013-01-30 18:15:00,
2013-01-30 09:19:00,-1.1,-6.1,29.91,North,0,0.0,0.0,79,0.00,CLR,,0.00,WeatherDisplay:10.37,2013-01-30 18:19:00,
2013-01-30 09:24:00,-1.1,-7.1,29.91,North,0,0.0,0.0,75,0.00,CLR,,0.00,WeatherDisplay:10.37,2013-01-30 18:24:00,
2013-01-30 09:30:00,-1.1,-6.6,29.91,North,0,0.0,0.0,77,0.00,CLR,,0.00,WeatherDisplay:10.37,2013-01-30 18:30:00,
2013-01-30 09:39:00,-1.1,-5.8,29.90,North,0,0.0,0.0,80,0.00,CLR,,0.00,WeatherDisplay:10.37,2013-01-30 18:39:00,
2013-01-30 09:45:00,-1.1,-5.8,29.90,North,0,0.0,0.0,80,0.00,CLR,,0.00,WeatherDisplay:10.37,2013-01-30 18:45:00,
2013-01-30 09:49:00,-1.1,-5.8,29.89,North,0,0.0,0.0,80,0.00,CLR,,0.00,WeatherDisplay:10.37,2013-01-30 18:49:00,
2013-01-30 09:54:00,-0.9,-5.1,29.89,North,0,0.0,0.0,82,0.00,CLR,,0.00,WeatherDisplay:10.37,2013-01-30 18:54:00,
2013-01-30 10:00:00,-0.8,-5.5,29.89,North,0,0.0,0.0,80,0.00,CLR,,0.00,WeatherDisplay:10.37,2013-01-30 19:00:00,
2013-01-30 10:05:00,-0.6,-5.3,29.89,North,0,0.0,0.0,80,0.00,CLR,,0.00,WeatherDisplay:10.37,2013-01-30 19:05:00,
2013-01-30 10:09:00,-0.4,-5.9,29.89,North,0,0.0,0.0,77,0.00,CLR,,0.00,WeatherDisplay:10.37,2013-01-30 19:09:00,
2013-01-30 10:15:00,-0.2,-3.9,29.89,North,0,0.0,0.0,84,0.00,CLR,,0.00,WeatherDisplay:10.37,2013-01-30 19:15:00,
2013-01-30 10:25:00,-0.4,-5.1,29.89,North,0,0.0,0.0,80,0.00,CLR,,0.00,WeatherDisplay:10.37,2013-01-30 19:25:00,
2013-01-30 10:30:00,-0.6,-4.8,29.89,North,0,0.0,0.0,82,0.00,CLR,,0.00,WeatherDisplay:10.37,2013-01-30 19:30:00,
2013-01-30 10:39:00,-0.6,-5.3,29.89,North,0,0.0,0.0,80,0.00,CLR,,0.00,WeatherDisplay:10.37,2013-01-30 19:39:00,
2013-01-30 10:45:00,-0.6,-4.5,29.89,North,0,0.0,0.0,83,0.00,CLR,,0.00,WeatherDisplay:10.37,2013-01-30 19:45:00,
2013-01-30 10:55:00,-0.2,-5.4,29.88,North,0,0.0,0.0,78,0.00,CLR,,0.00,WeatherDisplay:10.37,2013-01-30 19:55:00,
2013-01-30 11:00:00,0.0,-5.3,29.88,North,0,0.0,0.0,78,0.00,CLR,,0.00,WeatherDisplay:10.37,2013-01-30 20:00:00,
2013-01-30 11:05:00,0.0,-5.0,29.88,North,0,0.0,0.0,79,0.00,CLR,,0.00,WeatherDisplay:10.37,2013-01-30 20:05:00,
2013-01-30 11:09:00,0.0,-5.3,29.88,North,0,0.0,0.0,78,0.00,CLR,,0.00,WeatherDisplay:10.37,2013-01-30 20:09:00,
2013-01-30 11:15:00,-0.2,-5.4,29.88,North,0,0.0,0.0,78,0.00,CLR,,0.00,WeatherDisplay:10.37,2013-01-30 20:15:00,
2013-01-30 11:24:00,-0.6,-5.5,29.89,North,0,0.0,0.0,79,0.00,CLR,,0.00,WeatherDisplay:10.37,2013-01-30 20:24:00,
2013-01-30 11:30:00,-0.8,-5.7,29.89,North,0,0.0,0.0,79,0.00,CLR,,0.00,WeatherDisplay:10.37,2013-01-30 20:30:00,
2013-01-30 11:34:00,-0.6,-6.3,29.89,North,0,0.0,0.0,76,0.00,CLR,,0.00,WeatherDisplay:10.37,2013-01-30 20:34:00,
2013-01-30 11:39:00,-0.2,-5.4,29.88,North,0,0.0,0.0,78,0.00,CLR,,0.00,WeatherDisplay:10.37,2013-01-30 20:39:00,
2013-01-30 11:45:00,0.0,-5.0,29.88,North,0,0.0,0.0,79,0.00,CLR,,0.00,WeatherDisplay:10.37,2013-01-30 20:45:00,
2013-01-30 11:54:00,0.7,-4.6,29.88,North,0,0.0,0.0,78,0.00,CLR,,0.00,WeatherDisplay:10.37,2013-01-30 20:54:00,
2013-01-30 12:00:00,0.9,-4.4,29.87,North,0,0.0,0.0,78,0.00,CLR,,0.00,WeatherDisplay:10.37,2013-01-30 21:00:00,
2013-01-30 12:09:00,1.7,-4.4,29.87,North,0,0.0,0.0,75,0.00,CLR,,0.00,WeatherDisplay:10.37,2013-01-30 21:09:00,
2013-01-30 12:15:00,2.0,-3.9,29.86,North,0,0.0,0.0,76,0.00,CLR,,0.00,WeatherDisplay:10.37,2013-01-30 21:15:00,
2013-01-30 12:24:00,2.2,-3.1,29.85,North,0,0.0,0.0,78,0.00,CLR,,0.00,WeatherDisplay:10.37,2013-01-30 21:24:00,
2013-01-30 12:30:00,2.1,-3.2,29.85,North,0,0.0,0.0,78,0.00,CLR,,0.00,WeatherDisplay:10.37,2013-01-30 21:30:00,
2013-01-30 12:39:00,2.1,-2.9,29.85,North,0,0.0,0.0,79,0.00,CLR,,0.00,WeatherDisplay:10.37,2013-01-30 21:39:00,
2013-01-30 12:45:00,2.3,-3.8,29.85,North,0,0.0,0.0,75,0.00,CLR,,0.00,WeatherDisplay:10.37,2013-01-30 21:45:00,
2013-01-30 12:55:00,2.5,-3.4,29.84,North,0,0.0,0.0,76,0.00,CLR,,0.00,WeatherDisplay:10.37,2013-01-30 21:55:00,
2013-01-30 13:00:00,2.5,-3.1,29.85,North,0,0.0,0.0,77,0.00,CLR,,0.00,WeatherDisplay:10.37,2013-01-30 22:00:00,
2013-01-30 13:09:00,2.5,-2.8,29.84,North,0,0.0,0.0,78,0.00,CLR,,0.00,WeatherDisplay:10.37,2013-01-30 22:09:00,
2013-01-30 13:15:00,2.5,-2.8,29.83,North,0,0.0,0.0,78,0.00,CLR,,0.00,WeatherDisplay:10.37,2013-01-30 22:15:00,
2013-01-30 13:24:00,2.7,-2.6,29.83,North,0,0.0,0.0,78,0.00,CLR,,0.00,WeatherDisplay:10.37,2013-01-30 22:24:00,
2013-01-30 13:30:00,3.1,-2.4,29.83,North,0,0.0,0.0,77,0.00,CLR,,0.00,WeatherDisplay:10.37,2013-01-30 22:30:00,
2013-01-30 13:39:00,3.9,-2.0,29.83,North,0,0.0,0.0,76,0.00,CLR,,0.00,WeatherDisplay:10.37,2013-01-30 22:39:00,
2013-01-30 13:45:00,4.1,-0.2,29.83,North,0,0.0,0.0,82,0.00,CLR,,0.00,WeatherDisplay:10.37,2013-01-30 22:45:00,
2013-01-30 13:54:00,4.3,-1.6,29.83,North,0,0.0,0.0,76,0.00,CLR,,0.00,WeatherDisplay:10.37,2013-01-30 22:54:00,
2013-01-30 14:00:00,4.4,-2.1,29.82,North,0,0.0,0.0,74,0.00,CLR,,0.00,WeatherDisplay:10.37,2013-01-30 23:00:00,
2013-01-30 14:09:00,4.5,-2.0,29.83,North,0,0.0,0.0,74,0.00,CLR,,0.00,WeatherDisplay:10.37,2013-01-30 23:09:00,
2013-01-30 14:15:00,4.5,-1.7,29.83,North,0,0.0,0.0,75,0.00,CLR,,0.00,WeatherDisplay:10.37,2013-01-30 23:15:00,
2013-01-30 14:19:00,4.6,-1.5,29.82,North,0,0.0,0.0,75,0.00,CLR,,0.00,WeatherDisplay:10.37,2013-01-30 23:19:00,
2013-01-30 14:24:00,4.8,-1.4,29.81,North,0,0.0,0.0,75,0.00,CLR,,0.00,WeatherDisplay:10.37,2013-01-30 23:24:00,
2013-01-30 14:30:00,4.8,-1.7,29.81,North,0,0.0,0.0,74,0.00,CLR,,0.00,WeatherDisplay:10.37,2013-01-30 23:30:00,
2013-01-30 14:39:00,4.8,0.5,29.81,North,0,0.0,0.0,82,0.00,CLR,,0.00,WeatherDisplay:10.37,2013-01-30 23:39:00,
2013-01-30 14:45:00,4.8,-1.7,29.81,North,0,0.0,0.0,74,0.00,CLR,,0.00,WeatherDisplay:10.37,2013-01-30 23:45:00,
2013-01-30 14:49:00,5.0,-0.9,29.81,North,0,0.0,0.0,76,0.00,CLR,,0.00,WeatherDisplay:10.37,2013-01-30 23:49:00,
2013-01-30 14:54:00,4.9,-1.0,29.81,North,0,0.0,0.0,76,0.00,CLR,,0.00,WeatherDisplay:10.37,2013-01-30 23:54:00,
2013-01-30 15:00:00,5.0,-0.9,29.81,North,0,0.0,0.0,76,0.00,CLR,,0.00,WeatherDisplay:10.37,2013-01-31 00:00:00,
2013-01-30 15:09:00,4.8,-1.1,29.81,North,0,0.0,0.0,76,0.00,CLR,,0.00,WeatherDisplay:10.37,2013-01-31 00:09:00,
2013-01-30 15:15:00,4.8,-1.1,29.81,North,0,0.0,0.0,76,0.00,CLR,,0.00,WeatherDisplay:10.37,2013-01-31 00:15:00,
2013-01-30 15:24:00,5.0,-0.9,29.80,North,0,0.0,0.0,76,0.00,CLR,,0.00,WeatherDisplay:10.37,2013-01-31 00:24:00,
2013-01-30 15:30:00,5.0,0.4,29.80,North,0,0.0,0.0,81,0.00,CLR,,0.00,WeatherDisplay:10.37,2013-01-31 00:30:00,
2013-01-30 15:39:00,5.2,-0.7,29.79,North,0,0.0,0.0,76,0.00,CLR,,0.00,WeatherDisplay:10.37,2013-01-31 00:39:00,
2013-01-30 15:45:00,5.3,-0.1,29.79,North,0,0.0,0.0,78,0.00,CLR,,0.00,WeatherDisplay:10.37,2013-01-31 00:45:00,
2013-01-30 15:54:00,5.7,0.3,29.79,North,0,0.0,0.0,78,0.00,CLR,,0.00,WeatherDisplay:10.37,2013-01-31 00:54:00,
2013-01-30 16:00:00,5.8,0.7,29.78,North,0,0.0,0.0,79,0.00,CLR,,0.00,WeatherDisplay:10.37,2013-01-31 01:00:00,
2013-01-30 16:09:00,6.1,0.4,29.78,North,0,0.0,0.0,77,0.00,CLR,,0.00,WeatherDisplay:10.37,2013-01-31 01:09:00,
2013-01-30 16:15:00,6.3,0.6,29.78,North,0,0.0,0.0,77,0.00,CLR,,0.00,WeatherDisplay:10.37,2013-01-31 01:15:00,
2013-01-30 16:24:00,6.3,0.9,29.78,North,0,0.0,0.0,78,0.00,CLR,,0.00,WeatherDisplay:10.37,2013-01-31 01:24:00,
2013-01-30 16:30:00,6.3,0.6,29.78,North,0,0.0,0.0,77,0.00,CLR,,0.00,WeatherDisplay:10.37,2013-01-31 01:30:00,
2013-01-30 16:40:00,6.4,1.0,29.77,North,0,0.0,0.0,78,0.00,CLR,,0.00,WeatherDisplay:10.37,2013-01-31 01:40:00,
2013-01-30 16:45:00,6.6,1.2,29.77,North,0,0.0,0.0,78,0.00,CLR,,0.00,WeatherDisplay:10.37,2013-01-31 01:45:00,
2013-01-30 16:55:00,6.4,3.1,29.77,North,0,0.0,0.0,86,0.00,CLR,,0.00,WeatherDisplay:10.37,2013-01-31 01:55:00,
2013-01-30 17:00:00,6.4,1.6,29.77,North,0,0.0,0.0,80,0.00,CLR,,0.00,WeatherDisplay:10.37,2013-01-31 02:00:00,
2013-01-30 17:10:00,6.6,2.3,29.76,North,0,0.0,0.0,82,0.00,CLR,,0.00,WeatherDisplay:10.37,2013-01-31 02:10:00,
2013-01-30 17:15:00,6.7,1.9,29.76,North,0,0.0,0.0,80,0.00,CLR,,0.00,WeatherDisplay:10.37,2013-01-31 02:15:00,
2013-01-30 17:20:00,7.0,4.4,29.76,North,0,0.0,0.0,89,0.00,CLR,,0.00,WeatherDisplay:10.37,2013-01-31 02:20:00,
2013-01-30 17:25:00,7.0,6.5,29.75,North,0,0.0,0.0,98,0.00,CLR,,0.00,WeatherDisplay:10.37,2013-01-31 02:25:00,
2013-01-30 17:30:00,7.0,2.1,29.76,North,0,2.0,0.0,80,0.00,CLR,,0.00,WeatherDisplay:10.37,2013-01-31 02:30:00,
2013-01-30 17:40:00,7.2,1.7,29.76,North,0,0.0,0.0,78,0.00,CLR,,0.00,WeatherDisplay:10.37,2013-01-31 02:40:00,
2013-01-30 17:49:00,7.5,2.6,29.75,North,0,1.0,0.0,80,0.00,CLR,,0.00,WeatherDisplay:10.37,2013-01-31 02:49:00,
2013-01-30 17:54:00,7.5,2.6,29.75,North,0,1.0,0.0,80,0.00,CLR,,0.00,WeatherDisplay:10.37,2013-01-31 02:54:00,
2013-01-30 18:00:00,7.7,2.8,29.75,North,0,1.0,0.0,80,0.00,CLR,,0.00,WeatherDisplay:10.37,2013-01-31 03:00:00,
2013-01-30 18:05:00,7.9,2.4,29.75,North,0,0.0,0.0,78,0.00,CLR,,0.00,WeatherDisplay:10.37,2013-01-31 03:05:00,
2013-01-30 18:10:00,8.1,3.4,29.75,North,0,0.0,0.0,81,0.00,CLR,,0.00,WeatherDisplay:10.37,2013-01-31 03:10:00,
2013-01-30 18:15:00,8.1,3.7,29.75,North,0,0.0,0.0,82,0.00,CLR,,0.00,WeatherDisplay:10.37,2013-01-31 03:15:00,
2013-01-30 18:25:00,8.2,3.3,29.75,North,0,2.0,0.0,80,0.00,CLR,,0.00,WeatherDisplay:10.37,2013-01-31 03:25:00,
2013-01-30 18:30:00,8.1,3.2,29.75,North,0,2.0,0.0,80,0.00,CLR,,0.00,WeatherDisplay:10.37,2013-01-31 03:30:00,
2013-01-30 18:39:00,8.4,3.8,29.75,North,0,0.0,0.0,81,0.00,CLR,,0.00,WeatherDisplay:10.37,2013-01-31 03:39:00,
2013-01-30 18:45:00,8.5,4.1,29.74,North,0,0.0,0.0,82,0.00,CLR,,0.00,WeatherDisplay:10.37,2013-01-31 03:45:00,
2013-01-30 18:50:00,8.7,4.8,29.75,North,0,0.0,0.0,84,0.00,CLR,,0.00,WeatherDisplay:10.37,2013-01-31 03:50:00,
2013-01-30 19:00:00,8.6,4.2,29.75,North,0,0.0,0.0,82,0.00,CLR,,0.00,WeatherDisplay:10.37,2013-01-31 04:00:00,
2013-01-30 19:09:00,8.8,4.4,29.75,North,0,0.0,0.0,82,0.00,CLR,,0.00,WeatherDisplay:10.37,2013-01-31 04:09:00,
2013-01-30 19:15:00,9.0,4.6,29.75,North,0,0.0,0.0,82,0.00,CLR,,0.00,WeatherDisplay:10.37,2013-01-31 04:15:00,
2013-01-30 19:24:00,9.1,4.5,29.74,North,0,0.0,0.0,81,0.00,CLR,,0.00,WeatherDisplay:10.37,2013-01-31 04:24:00,
2013-01-30 19:30:00,9.3,4.9,29.74,North,0,0.0,0.0,82,0.00,CLR,,0.00,WeatherDisplay:10.37,2013-01-31 04:30:00,
2013-01-30 19:35:00,9.3,5.5,29.74,North,0,0.0,0.0,84,0.00,CLR,,0.00,WeatherDisplay:10.37,2013-01-31 04:35:00,
2013-01-30 19:40:00,9.5,5.1,29.74,North,0,0.0,0.0,82,0.00,CLR,,0.00,WeatherDisplay:10.37,2013-01-31 04:40:00,
2013-01-30 19:45:00,9.5,5.1,29.74,North,0,0.0,0.0,82,0.00,CLR,,0.00,WeatherDisplay:10.37,2013-01-31 04:45:00,
2013-01-30 19:54:00,9.7,4.7,29.74,North,0,0.0,0.0,80,0.00,CLR,,0.00,WeatherDisplay:10.37,2013-01-31 04:54:00,
2013-01-30 20:00:00,9.7,4.7,29.74,North,0,0.0,0.0,80,0.00,CLR,,0.00,WeatherDisplay:10.37,2013-01-31 05:00:00,
2013-01-30 20:05:00,9.7,4.7,29.74,North,0,0.0,0.0,80,0.00,CLR,,0.00,WeatherDisplay:10.37,2013-01-31 05:05:00,
2013-01-30 20:10:00,9.5,4.6,29.74,North,0,0.0,0.0,80,0.00,CLR,,0.00,WeatherDisplay:10.37,2013-01-31 05:10:00,
2013-01-30 20:19:00,9.4,5.0,29.74,North,0,0.0,0.0,82,0.00,CLR,,0.00,WeatherDisplay:10.37,2013-01-31 05:19:00,
2013-01-30 20:24:00,9.5,5.1,29.74,North,0,0.0,0.0,82,0.00,CLR,,0.00,WeatherDisplay:10.37,2013-01-31 05:24:00,
2013-01-30 20:30:00,9.7,4.7,29.74,North,0,0.0,0.0,80,0.00,CLR,,0.00,WeatherDisplay:10.37,2013-01-31 05:30:00,
2013-01-30 20:35:00,9.7,5.3,29.74,North,0,0.0,0.0,82,0.00,CLR,,0.00,WeatherDisplay:10.37,2013-01-31 05:35:00,
2013-01-30 20:40:00,9.4,5.3,29.75,North,0,0.0,0.0,83,0.00,CLR,,0.00,WeatherDisplay:10.37,2013-01-31 05:40:00,
2013-01-30 20:45:00,8.7,4.3,29.75,North,0,0.0,0.0,82,0.00,CLR,,0.00,WeatherDisplay:10.37,2013-01-31 05:45:00,
2013-01-30 20:49:00,8.1,3.7,29.75,North,0,0.0,0.0,82,0.00,CLR,,0.00,WeatherDisplay:10.37,2013-01-31 05:49:00,
2013-01-30 20:54:00,7.9,3.5,29.74,North,0,0.0,0.0,82,0.00,CLR,,0.00,WeatherDisplay:10.37,2013-01-31 05:54:00,
2013-01-30 21:00:00,7.8,3.5,29.74,North,0,0.0,0.0,82,0.00,CLR,,0.00,WeatherDisplay:10.37,2013-01-31 06:00:00,
2013-01-30 21:05:00,7.8,4.0,29.75,North,0,0.0,0.0,84,0.00,CLR,,0.00,WeatherDisplay:10.37,2013-01-31 06:05:00,
2013-01-30 21:10:00,7.9,3.5,29.75,North,0,0.0,0.0,82,0.00,CLR,,0.00,WeatherDisplay:10.37,2013-01-31 06:10:00,
2013-01-30 21:15:00,7.9,3.5,29.75,North,0,0.0,0.0,82,0.00,CLR,,0.00,WeatherDisplay:10.37,2013-01-31 06:15:00,
2013-01-30 21:24:00,7.9,3.5,29.75,North,0,0.0,0.0,82,0.00,CLR,,0.00,WeatherDisplay:10.37,2013-01-31 06:24:00,
2013-01-30 21:30:00,8.1,3.7,29.75,North,0,0.0,0.0,82,0.00,CLR,,0.00,WeatherDisplay:10.37,2013-01-31 06:30:00,
2013-01-30 21:35:00,8.4,4.1,29.75,North,0,0.0,0.0,82,0.00,CLR,,0.00,WeatherDisplay:10.37,2013-01-31 06:35:00,
2013-01-30 21:45:00,8.4,3.8,29.74,North,0,0.0,0.0,81,0.00,CLR,,0.00,WeatherDisplay:10.37,2013-01-31 06:45:00,
2013-01-30 21:54:00,8.1,3.5,29.74,North,0,0.0,0.0,81,0.00,CLR,,0.00,WeatherDisplay:10.37,2013-01-31 06:54:00,
2013-01-30 22:00:00,8.2,3.6,29.75,North,0,2.0,0.0,81,0.00,CLR,,0.00,WeatherDisplay:10.37,2013-01-31 07:00:00,
2013-01-30 22:09:00,8.1,4.0,29.75,North,0,1.0,0.0,83,0.00,CLR,,0.00,WeatherDisplay:10.37,2013-01-31 07:09:00,
2013-01-30 22:15:00,7.9,3.3,29.75,North,0,1.0,0.0,81,0.00,CLR,,0.00,WeatherDisplay:10.37,2013-01-31 07:15:00,
2013-01-30 22:20:00,7.7,3.1,29.75,North,0,1.0,0.0,81,0.00,CLR,,0.00,WeatherDisplay:10.37,2013-01-31 07:20:00,
2013-01-30 22:25:00,7.5,3.9,29.76,North,0,3.0,0.0,85,0.00,CLR,,0.00,WeatherDisplay:10.37,2013-01-31 07:25:00,
2013-01-30 22:30:00,7.2,2.6,29.75,North,0,1.0,0.0,81,0.00,CLR,,0.00,WeatherDisplay:10.37,2013-01-31 07:30:00,
2013-01-30 22:40:00,6.6,2.3,29.76,North,0,2.0,0.0,82,0.00,CLR,,0.00,WeatherDisplay:10.37,2013-01-31 07:40:00,
2013-01-30 22:45:00,6.4,3.1,29.76,North,0,2.0,0.0,86,0.00,CLR,,0.00,WeatherDisplay:10.37,2013-01-31 07:45:00,
2013-01-30 22:55:00,6.1,1.8,29.76,North,0,2.0,0.0,82,0.00,CLR,,0.00,WeatherDisplay:10.37,2013-01-31 07:55:00,
2013-01-30 23:00:00,5.7,1.4,29.76,North,0,1.0,0.0,82,0.00,CLR,,0.00,WeatherDisplay:10.37,2013-01-31 08:00:00,
2013-01-30 23:09:00,5.4,1.3,29.76,North,0,2.0,0.0,83,0.00,CLR,,0.00,WeatherDisplay:10.37,2013-01-31 08:09:00,
2013-01-30 23:15:00,5.4,1.3,29.76,North,0,2.0,0.0,83,0.00,CLR,,0.00,WeatherDisplay:10.37,2013-01-31 08:15:00,
2013-01-30 23:20:00,5.2,0.9,29.76,North,0,1.0,0.0,82,0.00,CLR,,0.00,WeatherDisplay:10.37,2013-01-31 08:20:00,
2013-01-30 23:25:00,5.2,1.4,29.76,North,0,1.0,0.0,84,0.00,CLR,,0.00,WeatherDisplay:10.37,2013-01-31 08:25:00,
2013-01-30 23:30:00,5.1,1.0,29.76,North,0,2.0,0.0,83,0.00,CLR,,0.00,WeatherDisplay:10.37,2013-01-31 08:30:00,
2013-01-30 23:39:00,4.6,0.4,29.76,North,0,2.0,0.0,82,0.00,CLR,,0.00,WeatherDisplay:10.37,2013-01-31 08:39:00,
2013-01-30 23:45:00,4.5,0.2,29.76,North,0,2.0,0.0,82,0.00,CLR,,0.00,WeatherDisplay:10.37,2013-01-31 08:45:00,
2013-01-30 23:50:00,4.3,0.0,29.76,North,0,2.0,0.0,82,0.00,CLR,,0.00,WeatherDisplay:10.37,2013-01-31 08:50:00,
2013-01-30 23:55:00,4.2,-0.1,29.77,North,0,2.0,0.0,82,0.00,CLR,,0.00,WeatherDisplay:10.37,2013-01-31 08:55:00,